createdAt,value
2022-07-29T00:01:01.287Z,101212.63
2022-07-29T00:03:29.343Z,101207.53
2022-07-29T00:05:57.377Z,101200.00
2022-07-29T00:08:27.447Z,101204.22
2022-07-29T00:10:56.649Z,101192.38
2022-07-29T00:13:32.278Z,101193.16
2022-07-29T00:16:04.470Z,101186.19
2022-07-29T00:18:33.363Z,101193.44
2022-07-29T00:21:01.578Z,101187.59
2022-07-29T00:23:30.700Z,101185.91
2022-07-29T00:26:03.403Z,101188.47
2022-07-29T00:28:34.334Z,101176.06
2022-07-29T00:31:03.081Z,101180.94
2022-07-29T00:33:31.413Z,101172.81
2022-07-29T00:35:59.027Z,101173.47
2022-07-29T00:38:26.923Z,101174.66
2022-07-29T00:40:54.901Z,101175.00
2022-07-29T00:43:24.276Z,101171.81
2022-07-29T00:45:55.034Z,101170.81
2022-07-29T00:48:23.088Z,101162.97
2022-07-29T00:50:58.134Z,101168.03
2022-07-29T00:53:26.920Z,101159.41
2022-07-29T00:55:56.124Z,101158.50
2022-07-29T00:58:25.805Z,101163.47
2022-07-29T01:00:54.061Z,101152.03
2022-07-29T01:03:22.113Z,101152.72
2022-07-29T01:05:51.408Z,101148.28
2022-07-29T01:08:23.867Z,101148.28
2022-07-29T01:10:54.762Z,101144.72
2022-07-29T01:13:23.357Z,101142.97
2022-07-29T01:15:58.754Z,101131.66
2022-07-29T01:18:37.065Z,101133.84
2022-07-29T01:21:36.982Z,101144.91
2022-07-29T01:24:25.608Z,101140.47
2022-07-29T01:27:30.011Z,101133.38
2022-07-29T01:30:05.211Z,101123.63
2022-07-29T01:32:37.662Z,101127.59
2022-07-29T01:35:08.467Z,101122.38
2022-07-29T01:37:45.042Z,101123.03
2022-07-29T01:40:22.723Z,101119.47
2022-07-29T01:42:54.442Z,101114.03
2022-07-29T01:45:29.025Z,101085.75
2022-07-29T01:48:02.498Z,101113.16
2022-07-29T01:50:35.505Z,101109.63
2022-07-29T01:53:06.870Z,101111.84
2022-07-29T01:55:40.535Z,101105.66
2022-07-29T01:58:09.845Z,101116.34
2022-07-29T02:00:43.810Z,101107.72
2022-07-29T02:03:13.265Z,101115.63
2022-07-29T02:05:44.496Z,101098.78
2022-07-29T02:08:14.047Z,101111.97
2022-07-29T02:10:53.454Z,101112.84
2022-07-29T02:13:24.422Z,101113.59
2022-07-29T02:15:58.153Z,101103.97
2022-07-29T02:18:29.364Z,101101.84
2022-07-29T02:20:58.832Z,101089.94
2022-07-29T02:23:30.785Z,101064.34
2022-07-29T02:26:05.742Z,101085.16
2022-07-29T02:28:36.356Z,101094.53
2022-07-29T02:31:12.344Z,101093.91
2022-07-29T02:33:45.545Z,101100.28
2022-07-29T02:39:01.591Z,101097.88
2022-07-29T02:41:55.570Z,101096.63
2022-07-29T02:44:29.041Z,101097.38
2022-07-29T02:47:09.534Z,101093.19
2022-07-29T02:49:46.130Z,101101.72
2022-07-29T02:52:29.461Z,101093.97
2022-07-29T02:55:02.222Z,101098.78
2022-07-29T02:57:53.827Z,101087.00
2022-07-29T03:00:25.872Z,101082.03
2022-07-29T03:02:57.124Z,101076.97
2022-07-29T03:05:33.103Z,101085.69
2022-07-29T03:08:04.736Z,101084.97
2022-07-29T03:13:32.938Z,101071.75
2022-07-29T03:16:01.558Z,101048.06
2022-07-29T03:18:38.351Z,101080.50
2022-07-29T03:21:06.531Z,101078.38
2022-07-29T03:23:54.165Z,101074.94
2022-07-29T03:26:22.240Z,101081.69
2022-07-29T03:28:52.976Z,101077.34
2022-07-29T03:31:33.372Z,101077.34
2022-07-29T03:34:08.318Z,101068.22
2022-07-29T03:36:36.189Z,101080.66
2022-07-29T03:39:09.293Z,101080.66
2022-07-29T03:41:42.757Z,101077.25
2022-07-29T03:44:11.856Z,101075.31
2022-07-29T03:46:41.919Z,101075.59
2022-07-29T03:49:22.648Z,101071.25
2022-07-29T03:51:51.565Z,101068.00
2022-07-29T03:54:24.415Z,101077.63
2022-07-29T03:56:54.561Z,101077.75
2022-07-29T03:59:23.941Z,101075.31
2022-07-29T04:01:52.526Z,101080.91
2022-07-29T04:04:24.934Z,101075.38
2022-07-29T04:06:57.345Z,101078.53
2022-07-29T04:09:25.277Z,101075.09
2022-07-29T04:12:02.640Z,101088.06
2022-07-29T04:14:32.698Z,101076.34
2022-07-29T04:17:01.470Z,101074.81
2022-07-29T04:19:30.853Z,101078.66
2022-07-29T04:21:58.748Z,101080.41
2022-07-29T04:24:30.240Z,101080.53
2022-07-29T04:27:07.230Z,101085.75
2022-07-29T04:29:35.094Z,101087.50
2022-07-29T04:32:03.081Z,101082.81
2022-07-29T04:34:32.780Z,101083.72
2022-07-29T04:37:09.777Z,101073.06
2022-07-29T04:39:38.280Z,101087.66
2022-07-29T04:42:09.084Z,101092.34
2022-07-29T04:44:39.557Z,101093.25
2022-07-29T04:47:13.471Z,101096.03
2022-07-29T04:49:45.639Z,101091.56
2022-07-29T04:52:17.274Z,101094.66
2022-07-29T04:54:45.211Z,101099.44
2022-07-29T04:57:20.687Z,101085.75
2022-07-29T04:59:57.925Z,101087.78
2022-07-29T05:02:26.027Z,101088.28
2022-07-29T05:05:06.883Z,101084.22
2022-07-29T05:07:44.154Z,101072.28
2022-07-29T05:10:12.890Z,101088.28
2022-07-29T05:12:40.773Z,101081.31
2022-07-29T05:15:11.585Z,101081.06
2022-07-29T05:17:44.490Z,101050.75
2022-07-29T05:20:30.031Z,101074.59
2022-07-29T05:22:58.472Z,101078.38
2022-07-29T05:25:43.116Z,101097.13
2022-07-29T05:28:30.768Z,101088.94
2022-07-29T05:30:59.482Z,101094.00
2022-07-29T05:33:34.969Z,101084.34
2022-07-29T05:36:08.163Z,101079.34
2022-07-29T05:38:36.961Z,101071.34
2022-07-29T05:41:05.409Z,101082.22
2022-07-29T05:43:33.449Z,101080.03
2022-07-29T05:46:05.447Z,101087.75
2022-07-29T05:48:36.642Z,101090.72
2022-07-29T05:51:06.159Z,101084.75
2022-07-29T05:53:52.602Z,101089.38
2022-07-29T05:56:20.558Z,101069.88
2022-07-29T05:58:50.898Z,101084.59
2022-07-29T06:01:18.840Z,101084.66
2022-07-29T06:03:59.141Z,101082.41
2022-07-29T06:06:28.681Z,101081.78
2022-07-29T06:08:56.621Z,101082.88
2022-07-29T06:11:24.581Z,101076.63
2022-07-29T06:13:59.931Z,101072.66
2022-07-29T06:16:30.219Z,101082.66
2022-07-29T06:21:48.872Z,101072.97
2022-07-29T06:24:18.018Z,101076.84
2022-07-29T06:26:50.441Z,101066.09
2022-07-29T06:29:18.299Z,101059.88
2022-07-29T06:31:54.741Z,101062.03
2022-07-29T06:34:23.485Z,101061.91
2022-07-29T06:36:55.838Z,101065.16
2022-07-29T06:39:31.799Z,101063.09
2022-07-29T06:41:59.754Z,101058.97
2022-07-29T06:47:09.356Z,101047.13
2022-07-29T06:49:39.712Z,101062.69
2022-07-29T06:52:11.622Z,101064.56
2022-07-29T06:54:40.829Z,101061.19
2022-07-29T06:57:08.774Z,101061.34
2022-07-29T06:59:37.384Z,101056.47
2022-07-29T07:02:11.161Z,101057.34
2022-07-29T07:04:41.359Z,101056.94
2022-07-29T07:07:10.582Z,101058.03
2022-07-29T07:09:41.519Z,101064.44
2022-07-29T07:12:21.525Z,101059.66
2022-07-29T07:14:57.783Z,101061.50
2022-07-29T07:17:25.747Z,101075.75
2022-07-29T07:19:56.739Z,101071.22
2022-07-29T07:22:48.333Z,101066.31
2022-07-29T07:25:25.568Z,101074.69
2022-07-29T07:27:53.812Z,101072.13
2022-07-29T07:30:21.790Z,101063.34
2022-07-29T07:32:50.868Z,101061.59
2022-07-29T07:35:21.758Z,101062.75
2022-07-29T07:37:51.802Z,101063.09
2022-07-29T07:40:24.056Z,101060.19
2022-07-29T07:42:52.007Z,101057.25
2022-07-29T07:45:22.844Z,101066.50
2022-07-29T07:47:59.757Z,101059.72
2022-07-29T07:50:44.755Z,101062.78
2022-07-29T07:53:17.068Z,101052.00
2022-07-29T07:58:43.086Z,101064.28
2022-07-29T08:01:11.860Z,101065.44
2022-07-29T08:03:45.526Z,101071.53
2022-07-29T08:06:14.414Z,101069.53
2022-07-29T08:08:44.094Z,101065.03
2022-07-29T08:11:11.994Z,101066.19
2022-07-29T08:13:40.394Z,101063.84
2022-07-29T08:16:16.194Z,101063.84
2022-07-29T08:18:45.836Z,101058.94
2022-07-29T08:21:15.071Z,101061.09
2022-07-29T08:23:58.959Z,101060.91
2022-07-29T08:26:28.785Z,101059.72
2022-07-29T08:28:56.679Z,101062.50
2022-07-29T08:31:27.433Z,101050.50
2022-07-29T08:34:00.710Z,101062.00
2022-07-29T08:36:28.603Z,101061.81
2022-07-29T08:38:57.845Z,101063.78
2022-07-29T08:41:29.056Z,101060.31
2022-07-29T08:43:57.029Z,101059.56
2022-07-29T08:46:25.360Z,101059.25
2022-07-29T08:48:53.349Z,101055.91
2022-07-29T08:51:23.095Z,101060.69
2022-07-29T08:53:56.035Z,101059.53
2022-07-29T08:56:26.156Z,101059.22
2022-07-29T08:58:56.003Z,101064.25
2022-07-29T09:01:36.034Z,101072.72
2022-07-29T09:04:16.709Z,101074.22
2022-07-29T09:06:49.959Z,101073.00
2022-07-29T09:09:19.771Z,101077.50
2022-07-29T09:11:49.489Z,101074.56
2022-07-29T09:14:17.433Z,101069.22
2022-07-29T09:17:03.274Z,101059.34
2022-07-29T09:19:32.713Z,101052.09
2022-07-29T09:22:03.322Z,101050.25
2022-07-29T09:24:43.282Z,101060.41
2022-07-29T09:27:21.879Z,101051.78
2022-07-29T09:30:06.324Z,101054.50
2022-07-29T09:32:35.212Z,101049.28
2022-07-29T09:35:21.298Z,101042.69
2022-07-29T09:37:57.010Z,101047.16
2022-07-29T09:40:29.979Z,101039.03
2022-07-29T09:43:04.153Z,101019.72
2022-07-29T09:45:44.111Z,101039.91
2022-07-29T09:48:17.698Z,101024.91
2022-07-29T09:50:47.825Z,101033.41
2022-07-29T09:53:32.491Z,101023.69
2022-07-29T09:56:06.909Z,101025.63
2022-07-29T09:58:36.787Z,101026.69
2022-07-29T10:01:07.475Z,101022.44
2022-07-29T10:03:52.667Z,101024.09
2022-07-29T10:06:29.464Z,101025.59
2022-07-29T10:09:08.726Z,101025.66
2022-07-29T10:11:48.154Z,101025.19
2022-07-29T10:14:21.134Z,101020.88
2022-07-29T10:16:55.514Z,101042.06
2022-07-29T10:19:39.960Z,101030.13
2022-07-29T10:22:12.683Z,101041.41
2022-07-29T10:24:42.435Z,101036.16
2022-07-29T10:27:13.657Z,101039.38
2022-07-29T10:29:42.902Z,101033.88
2022-07-29T10:32:28.811Z,101032.34
2022-07-29T10:35:21.814Z,101027.34
2022-07-29T10:38:19.729Z,101021.56
2022-07-29T10:41:19.557Z,101029.81
2022-07-29T10:44:02.849Z,101012.00
2022-07-29T10:46:38.489Z,101021.13
2022-07-29T10:49:18.173Z,101020.78
2022-07-29T10:51:55.830Z,101019.63
2022-07-29T10:55:01.353Z,101019.00
2022-07-29T10:57:57.728Z,101018.72
2022-07-29T11:00:45.482Z,101017.91
2022-07-29T11:03:50.539Z,101013.94
2022-07-29T11:06:26.369Z,101013.94
2022-07-29T11:12:54.388Z,101011.13
2022-07-29T11:15:25.212Z,101023.22
2022-07-29T11:18:15.176Z,100999.31
2022-07-29T11:20:47.823Z,100979.78
2022-07-29T11:23:27.601Z,101010.63
2022-07-29T11:26:21.164Z,101013.31
2022-07-29T11:29:04.561Z,101010.19
2022-07-29T11:31:42.431Z,101015.94
2022-07-29T11:34:22.590Z,101014.59
2022-07-29T11:37:28.207Z,101009.78
2022-07-29T11:40:21.345Z,101008.00
2022-07-29T11:42:55.298Z,101010.00
2022-07-29T11:48:34.797Z,101006.69
2022-07-29T11:51:11.802Z,101005.38
2022-07-29T11:53:52.617Z,101007.53
2022-07-29T11:56:25.588Z,100999.31
2022-07-29T11:59:08.480Z,100996.53
2022-07-29T12:02:06.678Z,100995.94
2022-07-29T12:04:52.529Z,100998.31
2022-07-29T12:07:21.341Z,100992.28
2022-07-29T12:10:00.671Z,100989.13
2022-07-29T12:12:54.166Z,100990.38
2022-07-29T12:15:24.942Z,100982.97
2022-07-29T12:18:24.310Z,100982.09
2022-07-29T12:20:59.570Z,100982.28
2022-07-29T12:23:35.551Z,100974.00
2022-07-29T12:26:07.483Z,100958.28
2022-07-29T12:29:11.475Z,100971.19
2022-07-29T12:31:47.475Z,100972.50
2022-07-29T12:34:17.975Z,100972.75
2022-07-29T12:36:46.424Z,100969.84
2022-07-29T12:39:14.651Z,100969.53
2022-07-29T12:41:42.564Z,100974.94
2022-07-29T12:44:11.973Z,100976.69
2022-07-29T12:46:40.299Z,100969.13
2022-07-29T12:49:08.630Z,100965.66
2022-07-29T12:51:39.997Z,100975.34
2022-07-29T12:54:11.276Z,100960.81
2022-07-29T12:56:43.611Z,100960.81
2022-07-29T12:59:22.567Z,100945.28
2022-07-29T13:01:52.872Z,100946.56
2022-07-29T13:04:31.713Z,100953.19
2022-07-29T13:07:06.672Z,100950.94
2022-07-29T13:09:41.973Z,100948.31
2022-07-29T13:12:13.562Z,100938.75
2022-07-29T13:14:44.466Z,100945.59
2022-07-29T13:17:16.703Z,100945.38
2022-07-29T13:19:46.604Z,100931.69
2022-07-29T13:22:16.508Z,100948.00
2022-07-29T13:24:52.235Z,100943.63
2022-07-29T13:27:21.626Z,100933.06
2022-07-29T13:29:52.303Z,100924.41
2022-07-29T13:32:27.801Z,100929.34
2022-07-29T13:35:01.105Z,100926.31
2022-07-29T13:37:56.424Z,100927.25
2022-07-29T13:40:24.325Z,100926.94
2022-07-29T13:42:52.358Z,100917.34
2022-07-29T13:45:21.659Z,100920.03
2022-07-29T13:47:51.176Z,100918.63
2022-07-29T13:50:25.341Z,100907.91
2022-07-29T13:52:53.993Z,100912.44
2022-07-29T13:55:22.095Z,100903.75
2022-07-29T13:57:56.280Z,100913.47
2022-07-29T14:00:29.600Z,100903.44
2022-07-29T14:03:03.209Z,100899.25
2022-07-29T14:05:31.248Z,100894.78
2022-07-29T14:07:59.249Z,100900.88
2022-07-29T14:10:28.285Z,100899.16
2022-07-29T14:12:56.456Z,100889.69
2022-07-29T14:15:24.359Z,100901.84
2022-07-29T14:17:53.646Z,100902.63
2022-07-29T14:20:21.598Z,100895.28
2022-07-29T14:22:49.503Z,100888.41
2022-07-29T14:25:18.215Z,100888.44
2022-07-29T14:27:49.235Z,100885.59
2022-07-29T14:30:17.067Z,100887.47
2022-07-29T14:32:45.465Z,100882.25
2022-07-29T14:35:14.855Z,100875.94
2022-07-29T14:37:42.796Z,100883.94
2022-07-29T14:40:12.344Z,100868.41
2022-07-29T14:42:40.532Z,100883.06
2022-07-29T14:45:10.430Z,100876.41
2022-07-29T14:47:38.607Z,100881.69
2022-07-29T14:50:07.752Z,100883.16
2022-07-29T14:52:37.064Z,100876.19
2022-07-29T14:55:19.431Z,100881.50
2022-07-29T14:57:48.599Z,100880.63
2022-07-29T15:00:17.444Z,100874.59
2022-07-29T15:03:01.378Z,100871.75
2022-07-29T15:05:30.797Z,100874.19
2022-07-29T15:08:01.105Z,100875.16
2022-07-29T15:10:29.778Z,100865.63
2022-07-29T15:12:58.172Z,100858.88
2022-07-29T15:15:26.287Z,100874.66
2022-07-29T15:17:54.194Z,100859.84
2022-07-29T15:20:22.351Z,100871.53
2022-07-29T15:22:50.431Z,100869.81
2022-07-29T15:25:19.997Z,100849.69
2022-07-29T15:27:48.894Z,100861.25
2022-07-29T15:30:30.295Z,100868.25
2022-07-29T15:33:03.175Z,100848.22
2022-07-29T15:35:31.537Z,100861.50
2022-07-29T15:37:59.509Z,100859.25
2022-07-29T15:40:29.186Z,100849.00
2022-07-29T15:42:57.227Z,100843.50
2022-07-29T15:45:25.414Z,100846.97
2022-07-29T15:47:53.253Z,100850.31
2022-07-29T15:50:21.302Z,100845.19
2022-07-29T15:52:49.189Z,100844.06
2022-07-29T15:55:17.097Z,100842.84
2022-07-29T15:57:46.322Z,100841.03
2022-07-29T16:00:17.118Z,100840.91
2022-07-29T16:02:45.583Z,100840.63
2022-07-29T16:05:13.507Z,100843.06
2022-07-29T16:07:41.469Z,100836.66
2022-07-29T16:10:09.875Z,100836.47
2022-07-29T16:12:37.746Z,100839.06
2022-07-29T16:15:10.448Z,100834.75
2022-07-29T16:17:38.850Z,100830.25
2022-07-29T16:20:08.329Z,100832.66
2022-07-29T16:22:36.416Z,100828.34
2022-07-29T16:25:04.844Z,100818.00
2022-07-29T16:27:37.529Z,100813.72
2022-07-29T16:30:09.977Z,100815.47
2022-07-29T16:32:37.966Z,100822.50
2022-07-29T16:35:06.569Z,100828.66
2022-07-29T16:37:36.540Z,100827.00
2022-07-29T16:40:06.331Z,100829.59
2022-07-29T16:42:46.520Z,100824.38
2022-07-29T16:45:21.011Z,100821.66
2022-07-29T16:47:49.568Z,100822.47
2022-07-29T16:50:17.876Z,100816.38
2022-07-29T16:52:45.782Z,100823.06
2022-07-29T16:55:13.763Z,100819.41
2022-07-29T16:57:42.723Z,100820.84
2022-07-29T17:00:11.739Z,100813.72
2022-07-29T17:02:41.093Z,100824.69
2022-07-29T17:05:10.570Z,100823.63
2022-07-29T17:07:38.499Z,100814.88
2022-07-29T17:10:09.049Z,100819.00
2022-07-29T17:12:37.835Z,100821.53
2022-07-29T17:15:06.977Z,100826.50
2022-07-29T17:17:39.276Z,100829.88
2022-07-29T17:20:24.318Z,100828.03
2022-07-29T17:22:52.207Z,100821.00
2022-07-29T17:25:20.786Z,100821.72
2022-07-29T17:27:49.698Z,100815.50
2022-07-29T17:30:17.645Z,100816.22
2022-07-29T17:32:45.667Z,100816.97
2022-07-29T17:35:31.011Z,100814.22
2022-07-29T17:38:00.407Z,100816.59
2022-07-29T17:40:28.481Z,100815.59
2022-07-29T17:42:56.359Z,100807.75
2022-07-29T17:45:24.279Z,100810.97
2022-07-29T17:47:52.250Z,100804.00
2022-07-29T17:50:20.213Z,100811.63
2022-07-29T17:52:48.125Z,100813.25
2022-07-29T17:55:17.666Z,100815.72
2022-07-29T17:57:45.531Z,100819.00
2022-07-29T18:00:17.183Z,100819.81
2022-07-29T18:02:45.163Z,100817.94
2022-07-29T18:05:13.187Z,100816.81
2022-07-29T18:07:41.266Z,100825.41
2022-07-29T18:10:10.022Z,100824.25
2022-07-29T18:12:39.466Z,100822.47
2022-07-29T18:15:08.192Z,100822.22
2022-07-29T18:17:57.383Z,100817.72
2022-07-29T18:20:24.162Z,100818.25
2022-07-29T18:22:52.059Z,100823.28
2022-07-29T18:25:20.776Z,100824.84
2022-07-29T18:27:50.268Z,100825.66
2022-07-29T18:30:19.203Z,100829.88
2022-07-29T18:33:18.110Z,100831.44
2022-07-29T18:35:37.288Z,100833.88
2022-07-29T18:38:06.133Z,100826.03
2022-07-29T18:40:34.493Z,100837.91
2022-07-29T18:43:03.699Z,100833.56
2022-07-29T18:45:31.767Z,100825.72
2022-07-29T18:48:00.808Z,100834.13
2022-07-29T18:50:30.064Z,100830.50
2022-07-29T18:52:58.823Z,100830.28
2022-07-29T18:55:27.417Z,100833.47
2022-07-29T18:57:57.062Z,100848.13
2022-07-29T19:00:27.723Z,100845.41
2022-07-29T19:02:56.198Z,100839.94
2022-07-29T19:05:24.829Z,100845.06
2022-07-29T19:07:54.795Z,100844.91
2022-07-29T19:10:22.824Z,100853.41
2022-07-29T19:12:50.834Z,100855.03
2022-07-29T19:15:19.932Z,100854.91
2022-07-29T19:17:50.264Z,100855.56
2022-07-29T19:20:18.298Z,100848.81
2022-07-29T19:22:46.598Z,100855.66
2022-07-29T19:25:15.258Z,100853.88
2022-07-29T19:27:43.196Z,100866.63
2022-07-29T19:30:11.688Z,100865.50
2022-07-29T19:32:40.057Z,100868.81
2022-07-29T19:35:27.056Z,100878.75
2022-07-29T19:37:56.555Z,100875.56
2022-07-29T19:40:26.009Z,100881.97
2022-07-29T19:42:54.245Z,100881.56
2022-07-29T19:45:23.050Z,100885.59
2022-07-29T19:47:51.283Z,100890.59
2022-07-29T19:50:20.628Z,100897.34
2022-07-29T19:52:48.766Z,100895.22
2022-07-29T19:55:16.864Z,100907.81
2022-07-29T19:57:47.308Z,100914.97
2022-07-29T20:00:16.504Z,100920.50
2022-07-29T20:02:44.584Z,100907.56
2022-07-29T20:05:13.589Z,100919.31
2022-07-29T20:07:42.910Z,100920.28
2022-07-29T20:10:11.786Z,100922.66
2022-07-29T20:12:42.523Z,100920.94
2022-07-29T20:15:16.321Z,100937.13
2022-07-29T20:17:44.808Z,100927.75
2022-07-29T20:20:13.112Z,100919.84
2022-07-29T20:22:42.846Z,100937.63
2022-07-29T20:25:11.910Z,100931.84
2022-07-29T20:27:40.664Z,100936.81
2022-07-29T20:30:13.265Z,100941.06
2022-07-29T20:32:41.460Z,100931.34
2022-07-29T20:35:12.182Z,100936.41
2022-07-29T20:37:52.065Z,100929.28
2022-07-29T20:40:25.735Z,100930.50
2022-07-29T20:42:53.668Z,100938.66
2022-07-29T20:45:21.814Z,100938.41
2022-07-29T20:47:51.031Z,100926.75
2022-07-29T20:50:19.430Z,100944.84
2022-07-29T20:52:47.432Z,100941.25
2022-07-29T20:55:15.975Z,100947.88
2022-07-29T20:57:45.443Z,100945.16
2022-07-29T21:00:14.309Z,100940.66
2022-07-29T21:02:42.400Z,100942.78
2022-07-29T21:05:11.568Z,100945.34
2022-07-29T21:07:39.667Z,100947.84
2022-07-29T21:10:08.832Z,100950.41
2022-07-29T21:12:36.841Z,100943.41
2022-07-29T21:15:07.060Z,100908.91
2022-07-29T21:17:38.702Z,100945.06
2022-07-29T21:20:08.734Z,100953.56
2022-07-29T21:22:36.680Z,100953.72
2022-07-29T21:25:05.704Z,100951.00
2022-07-29T21:27:50.868Z,100946.66
2022-07-29T21:30:20.319Z,100957.09
2022-07-29T21:32:48.454Z,100959.03
2022-07-29T21:35:35.693Z,100962.56
2022-07-29T21:38:04.754Z,100966.63
2022-07-29T21:40:32.805Z,100958.34
2022-07-29T21:43:00.693Z,100971.94
2022-07-29T21:45:30.005Z,100977.50
2022-07-29T21:47:57.952Z,100980.03
2022-07-29T21:50:26.543Z,100998.72
2022-07-29T21:52:54.629Z,100991.63
2022-07-29T21:55:24.326Z,100994.94
2022-07-29T21:57:54.265Z,100991.31
2022-07-29T22:00:25.499Z,101008.25
2022-07-29T22:02:55.032Z,101023.31
2022-07-29T22:05:22.976Z,101021.25
2022-07-29T22:07:56.361Z,101022.75
2022-07-29T22:10:25.840Z,101033.38
2022-07-29T22:12:54.883Z,101010.66
2022-07-29T22:15:23.173Z,101024.16
2022-07-29T22:17:51.168Z,101019.91
2022-07-29T22:20:21.011Z,101010.78
2022-07-29T22:22:49.050Z,101007.97
2022-07-29T22:25:17.747Z,100995.88
2022-07-29T22:27:45.905Z,100996.94
2022-07-29T22:30:14.301Z,100999.22
2022-07-29T22:32:42.374Z,100991.94
2022-07-29T22:35:10.564Z,100987.53
2022-07-29T22:37:40.166Z,100983.69
2022-07-29T22:40:09.157Z,100981.25
2022-07-29T22:42:40.842Z,100976.53
2022-07-29T22:45:10.647Z,100975.25
2022-07-29T22:47:48.196Z,100977.63
2022-07-29T22:50:17.070Z,100979.09
2022-07-29T22:52:46.922Z,100974.53
2022-07-29T22:55:15.400Z,100973.25
2022-07-29T22:57:43.583Z,100969.53
2022-07-29T23:00:12.400Z,100969.44
2022-07-29T23:02:41.350Z,100970.19
2022-07-29T23:05:10.406Z,100969.03
2022-07-29T23:07:38.410Z,100972.34
2022-07-29T23:10:09.025Z,100975.03
2022-07-29T23:12:37.364Z,100976.47
2022-07-29T23:15:05.750Z,100971.06
2022-07-29T23:17:36.696Z,100956.91
2022-07-29T23:20:07.661Z,100957.81
2022-07-29T23:22:35.871Z,100949.66
2022-07-29T23:25:03.785Z,100951.78
2022-07-29T23:27:33.205Z,100955.31
2022-07-29T23:30:01.246Z,100956.44
2022-07-29T23:32:29.267Z,100953.72
2022-07-29T23:34:57.308Z,100957.59
2022-07-29T23:37:26.623Z,100966.13
2022-07-29T23:39:55.229Z,100961.28
2022-07-29T23:42:23.306Z,100938.25
2022-07-29T23:44:53.009Z,100972.47
2022-07-29T23:47:20.998Z,100975.34
2022-07-29T23:49:50.026Z,100975.25
2022-07-29T23:52:18.654Z,100969.78
2022-07-29T23:54:46.760Z,100959.19
2022-07-29T23:57:14.704Z,100962.94
2022-07-29T23:59:42.654Z,100960.50
